KGUC

Gunnison-Crested Butte Regional Airport

Gunnison, Colorado, USA
KGUC 202322Z 2100/2124 35011KT P6SM VCSH BKN050 OVC070 TEMPO 2101/2105 4SM -SN BKN015 OVC030 FM210500 26004KT P6SM VCSH BKN030 FM211200 29007KT P6SM BKN050 FM212100 29010KT P6SM SCT070
Issued Valid From Valid To
Apr-20 @ 23:22 UTC
(5 hours ago)
Apr-21 @ 00:00 UTC
(4 hours ago)
Apr-22 @ 00:00 UTC
(in 20 hours)
Apr-21 @ 00:00 to Apr-21 @ 05:00
KGUC 202322Z 2100/2124 35011KT P6SM VCSH BKN050 OVC070
Wind Visibility Clouds
350° at 11 knots Greater than 6 miles
  • Broken at 5,000' AGL
  • Overcast at 7,000' AGL
Temporary Apr-21 @ 01:00 to Apr-21 @ 05:00
TEMPO 2101/2105 4SM -SN BKN015 OVC030
Visibility Clouds Conditions
4 miles
  • Broken at 1,500' AGL
  • Overcast at 3,000' AGL
  • Light Snow
From Apr-21 @ 05:00 to Apr-21 @ 12:00
FM210500 26004KT P6SM VCSH BKN030
Wind Visibility Clouds
260° at 4 knots Greater than 6 miles
  • Broken at 3,000' AGL
From Apr-21 @ 12:00 to Apr-21 @ 21:00
FM211200 29007KT P6SM BKN050
Wind Visibility Clouds
290° at 7 knots Greater than 6 miles
  • Broken at 5,000' AGL
From Apr-21 @ 21:00 to Apr-22 @ 00:00
FM212100 29010KT P6SM SCT070
Wind Visibility Clouds
290° at 10 knots Greater than 6 miles
  • Scattered at 7,000' AGL
KGUC 202322Z 2100/2124 35011KT P6SM VCSH BKN050 OVC070 TEMPO 2101/2105 4SM -SN BKN015 OVC030 FM210500 26004KT P6SM VCSH BKN030 FM211200 29007KT P6SM BKN050 FM212100 29010KT P6SM SCT070
Issued Apr-20 @ 23:22 UTC
(5 hours ago)
Valid From Apr-21 @ 00:00 UTC
(4 hours ago)
Valid To Apr-22 @ 00:00 UTC
(in 20 hours)
Apr-21 @ 00:00 - Apr-21 @ 05:00
Wind Visibility
350° at 11 knots Greater than 6 miles
Clouds
  • Broken at 5,000' AGL
  • Overcast at 7,000' AGL
Temporary Apr-21 @ 01:00 - Apr-21 @ 05:00
Clouds
  • Broken at 1,500' AGL
  • Overcast at 3,000' AGL
Conditions
  • Light Snow
From Apr-21 @ 05:00 - Apr-21 @ 12:00
Wind Visibility
260° at 4 knots Greater than 6 miles
Clouds
  • Broken at 3,000' AGL
From Apr-21 @ 12:00 - Apr-21 @ 21:00
Wind Visibility
290° at 7 knots Greater than 6 miles
Clouds
  • Broken at 5,000' AGL
From Apr-21 @ 21:00 - Apr-22 @ 00:00
Wind Visibility
290° at 10 knots Greater than 6 miles
Clouds
  • Scattered at 7,000' AGL